createdAt,value
2018-02-10T00:00:38.613Z,0.43
2018-02-10T00:03:06.110Z,0.45
2018-02-10T00:05:33.666Z,0.57
2018-02-10T00:08:01.205Z,0.57
2018-02-10T00:10:28.783Z,0.52
2018-02-10T00:12:56.313Z,0.53
2018-02-10T00:15:23.840Z,0.55
2018-02-10T00:17:51.396Z,0.57
2018-02-10T00:20:18.921Z,0.49
2018-02-10T00:22:50.892Z,0.50
2018-02-10T00:25:18.459Z,0.51
2018-02-10T00:27:46.991Z,0.53
2018-02-10T00:30:14.756Z,0.59
2018-02-10T00:32:42.492Z,0.58
2018-02-10T00:35:10.096Z,0.58
2018-02-10T00:37:37.656Z,0.51
2018-02-10T00:40:05.216Z,0.41
2018-02-10T00:42:32.760Z,0.32
2018-02-10T00:45:00.308Z,0.35
2018-02-10T00:47:27.839Z,0.36
2018-02-10T00:49:55.551Z,0.33
2018-02-10T00:52:23.110Z,0.41
2018-02-10T00:54:50.663Z,0.42
2018-02-10T00:57:18.202Z,0.31
2018-02-10T00:59:45.719Z,0.32
2018-02-10T01:02:13.242Z,0.30
2018-02-10T01:04:40.786Z,0.28
2018-02-10T01:07:08.341Z,0.30
2018-02-10T01:09:35.869Z,0.34
2018-02-10T01:12:03.409Z,0.28
2018-02-10T01:14:30.933Z,0.28
2018-02-10T01:16:58.475Z,0.33
2018-02-10T01:19:26.181Z,0.38
2018-02-10T01:21:53.714Z,0.43
2018-02-10T01:24:21.253Z,0.32
2018-02-10T01:26:48.787Z,0.36
2018-02-10T01:29:16.324Z,0.35
2018-02-10T01:31:43.856Z,0.36
2018-02-10T01:34:11.389Z,0.32
2018-02-10T01:36:38.905Z,0.27
2018-02-10T01:39:06.492Z,0.28
2018-02-10T01:41:34.009Z,0.18
2018-02-10T01:44:01.553Z,0.18
2018-02-10T01:46:29.182Z,0.19
2018-02-10T01:48:56.778Z,0.14
2018-02-10T01:51:24.521Z,0.08
2018-02-10T01:53:52.090Z,0.07
2018-02-10T01:56:19.618Z,0.10
2018-02-10T01:58:47.280Z,0.16
2018-02-10T02:01:14.796Z,0.15
2018-02-10T02:03:42.317Z,0.20
2018-02-10T02:06:09.856Z,0.18
2018-02-10T02:08:37.413Z,0.21
2018-02-10T02:11:04.973Z,0.24
2018-02-10T02:13:32.540Z,0.24
2018-02-10T02:16:00.061Z,0.21
2018-02-10T02:18:27.597Z,0.18
2018-02-10T02:20:55.127Z,0.23
2018-02-10T02:23:22.650Z,0.24
2018-02-10T02:25:50.176Z,0.21
2018-02-10T02:28:17.716Z,0.05
2018-02-10T02:30:45.245Z,0.08
2018-02-10T02:33:12.777Z,0.09
2018-02-10T02:35:40.304Z,0.22
2018-02-10T02:38:07.829Z,0.14
2018-02-10T02:40:35.353Z,0.07
2018-02-10T02:43:02.983Z,0.14
2018-02-10T02:45:30.510Z,0.20
2018-02-10T02:47:58.035Z,0.21
2018-02-10T02:50:25.565Z,0.15
2018-02-10T02:52:53.105Z,0.15
2018-02-10T02:55:20.657Z,0.18
2018-02-10T02:57:48.203Z,0.17
2018-02-10T03:00:15.725Z,0.21
2018-02-10T03:02:43.255Z,0.19
2018-02-10T03:05:10.781Z,0.14
2018-02-10T03:07:38.306Z,0.11
2018-02-10T03:10:05.831Z,0.11
2018-02-10T03:12:33.361Z,0.11
2018-02-10T03:15:00.882Z,0.00
2018-02-10T03:17:28.410Z,-0.05
2018-02-10T03:19:55.973Z,-0.03
2018-02-10T03:22:23.501Z,-0.02
2018-02-10T03:24:51.032Z,0.03
2018-02-10T03:27:18.562Z,-0.08
2018-02-10T03:29:46.107Z,-0.01
2018-02-10T03:32:13.628Z,0.16
2018-02-10T03:34:41.157Z,0.22
2018-02-10T03:37:08.683Z,0.19
2018-02-10T03:39:36.199Z,0.02
2018-02-10T03:42:03.738Z,0.18
2018-02-10T03:44:31.261Z,0.13
2018-02-10T03:46:58.836Z,0.11
2018-02-10T03:49:26.445Z,0.17
2018-02-10T03:51:53.978Z,0.14
2018-02-10T03:54:21.500Z,0.27
2018-02-10T03:56:49.057Z,0.16
2018-02-10T03:59:16.597Z,0.16
2018-02-10T04:01:44.148Z,0.16
2018-02-10T04:04:11.669Z,0.13
2018-02-10T04:06:39.194Z,0.13
2018-02-10T04:09:06.733Z,0.14
2018-02-10T04:11:34.260Z,0.16
2018-02-10T04:14:01.802Z,0.16
2018-02-10T04:16:29.625Z,0.08
2018-02-10T04:18:57.164Z,0.08
2018-02-10T04:21:24.688Z,0.10
2018-02-10T04:23:52.285Z,0.10
2018-02-10T04:26:19.804Z,0.18
2018-02-10T04:28:47.335Z,0.23
2018-02-10T04:31:14.860Z,0.28
2018-02-10T04:33:42.393Z,0.04
2018-02-10T04:36:09.917Z,0.13
2018-02-10T04:38:37.645Z,0.21
2018-02-10T04:41:05.227Z,0.25
2018-02-10T04:43:32.761Z,0.10
2018-02-10T04:46:00.329Z,-0.03
2018-02-10T04:48:27.853Z,0.06
2018-02-10T04:50:55.441Z,0.01
2018-02-10T04:53:22.965Z,-0.06
2018-02-10T04:55:50.495Z,-0.07
2018-02-10T04:58:18.112Z,-0.08
2018-02-10T05:00:45.686Z,-0.10
2018-02-10T05:03:13.253Z,-0.08
2018-02-10T05:05:40.798Z,-0.06
2018-02-10T05:08:08.323Z,-0.09
2018-02-10T05:10:35.849Z,-0.07
2018-02-10T05:13:03.487Z,-0.02
2018-02-10T05:15:31.044Z,-0.04
2018-02-10T05:17:58.564Z,-0.05
2018-02-10T05:20:26.114Z,0.00
2018-02-10T05:22:53.653Z,-0.07
2018-02-10T05:25:21.210Z,-0.11
2018-02-10T05:27:48.750Z,-0.07
2018-02-10T05:30:16.327Z,0.02
2018-02-10T05:32:43.868Z,0.08
2018-02-10T05:35:11.393Z,0.07
2018-02-10T05:37:38.937Z,-0.01
2018-02-10T05:40:06.542Z,0.02
2018-02-10T05:42:34.074Z,0.09
2018-02-10T05:45:01.588Z,0.06
2018-02-10T05:47:29.124Z,0.11
2018-02-10T05:49:56.664Z,0.16
2018-02-10T05:52:24.201Z,0.05
2018-02-10T05:54:51.753Z,0.06
2018-02-10T05:57:19.286Z,0.03
2018-02-10T05:59:46.828Z,-0.06
2018-02-10T06:02:14.380Z,-0.07
2018-02-10T06:04:41.909Z,-0.08
2018-02-10T06:07:09.462Z,-0.05
2018-02-10T06:09:37.005Z,-0.04
2018-02-10T06:12:04.542Z,-0.14
2018-02-10T06:14:32.076Z,-0.11
2018-02-10T06:16:59.641Z,-0.11
2018-02-10T06:19:27.178Z,-0.10
2018-02-10T06:21:54.718Z,-0.03
2018-02-10T06:24:22.302Z,0.04
2018-02-10T06:26:49.881Z,0.05
2018-02-10T06:29:17.411Z,0.07
2018-02-10T06:31:44.940Z,0.02
2018-02-10T06:34:12.474Z,0.05
2018-02-10T06:36:40.020Z,-0.01
2018-02-10T06:39:07.553Z,-0.01
2018-02-10T06:41:35.084Z,0.01
2018-02-10T06:44:02.637Z,0.01
2018-02-10T06:46:30.157Z,0.01
2018-02-10T06:48:57.672Z,0.00
2018-02-10T06:51:25.247Z,0.09
2018-02-10T06:53:52.781Z,-0.01
2018-02-10T06:56:20.308Z,-0.05
2018-02-10T06:58:47.850Z,-0.06
2018-02-10T07:01:15.410Z,-0.02
2018-02-10T07:03:42.940Z,-0.05
2018-02-10T07:06:10.534Z,0.06
2018-02-10T07:08:38.094Z,0.17
2018-02-10T07:11:05.624Z,0.08
2018-02-10T07:13:33.151Z,0.06
2018-02-10T07:16:00.680Z,0.11
2018-02-10T07:18:28.202Z,0.11
2018-02-10T07:20:55.789Z,0.11
2018-02-10T07:23:23.316Z,-0.02
2018-02-10T07:25:50.897Z,0.09
2018-02-10T07:28:18.483Z,0.11
2018-02-10T07:30:46.018Z,0.09
2018-02-10T07:33:13.535Z,0.13
2018-02-10T07:35:41.165Z,0.17
2018-02-10T07:38:08.696Z,0.15
2018-02-10T07:40:36.225Z,0.18
2018-02-10T07:43:03.777Z,0.24
2018-02-10T07:45:31.295Z,0.25
2018-02-10T07:47:58.825Z,0.21
2018-02-10T07:50:26.346Z,0.30
2018-02-10T07:52:53.977Z,0.34
2018-02-10T07:55:21.538Z,0.45
2018-02-10T07:57:49.195Z,0.46
2018-02-10T08:00:16.717Z,0.47
2018-02-10T08:02:44.278Z,0.51
2018-02-10T08:05:11.798Z,0.41
2018-02-10T08:07:39.329Z,0.49
2018-02-10T08:10:06.861Z,0.47
2018-02-10T08:12:34.385Z,0.50
2018-02-10T08:15:02.017Z,0.58
2018-02-10T08:17:29.552Z,0.58
2018-02-10T08:19:57.065Z,0.63
2018-02-10T08:22:24.589Z,0.62
2018-02-10T08:24:52.151Z,0.65
2018-02-10T08:27:19.683Z,0.64
2018-02-10T08:29:47.196Z,0.72
2018-02-10T08:32:14.726Z,0.61
2018-02-10T08:34:42.271Z,0.75
2018-02-10T08:37:09.808Z,0.73
2018-02-10T08:39:37.362Z,0.74
2018-02-10T08:42:04.923Z,0.82
2018-02-10T08:44:32.463Z,0.91
2018-02-10T08:47:00.000Z,0.80
2018-02-10T08:49:27.541Z,0.95
2018-02-10T08:51:55.056Z,0.92
2018-02-10T08:54:22.620Z,0.93
2018-02-10T08:56:50.220Z,0.89
2018-02-10T08:59:17.749Z,0.90
2018-02-10T09:01:45.278Z,1.12
2018-02-10T09:04:12.833Z,1.17
2018-02-10T09:06:40.347Z,1.24
2018-02-10T09:09:07.859Z,1.19
2018-02-10T09:11:35.485Z,1.18
2018-02-10T09:14:03.004Z,1.16
2018-02-10T09:16:30.553Z,1.25
2018-02-10T09:18:58.075Z,1.21
2018-02-10T09:21:25.595Z,1.29
2018-02-10T09:23:53.128Z,1.25
2018-02-10T09:26:20.674Z,1.46
2018-02-10T09:28:48.199Z,1.33
2018-02-10T09:31:15.725Z,1.42
2018-02-10T09:33:43.245Z,1.49
2018-02-10T09:36:10.852Z,1.53
2018-02-10T09:38:38.389Z,1.53
2018-02-10T09:41:05.929Z,1.61
2018-02-10T09:43:33.552Z,1.69
2018-02-10T09:46:01.113Z,1.82
2018-02-10T09:48:28.642Z,1.85
2018-02-10T09:50:56.199Z,1.93
2018-02-10T09:56:22.843Z,1.93
2018-02-10T09:58:50.356Z,2.06
2018-02-10T10:01:17.882Z,2.00
2018-02-10T10:03:45.407Z,2.14
2018-02-10T10:06:12.939Z,2.31
2018-02-10T10:08:40.465Z,2.23
2018-02-10T10:11:07.979Z,2.26
2018-02-10T10:13:35.505Z,2.44
2018-02-10T10:16:03.040Z,2.40
2018-02-10T10:18:30.555Z,2.38
2018-02-10T10:20:58.072Z,2.33
2018-02-10T10:23:25.615Z,2.46
2018-02-10T10:25:53.148Z,2.43
2018-02-10T10:28:20.671Z,2.45
2018-02-10T10:30:48.211Z,2.59
2018-02-10T10:33:15.725Z,2.69
2018-02-10T10:35:43.233Z,2.58
2018-02-10T10:38:10.752Z,2.70
2018-02-10T10:40:38.311Z,2.74
2018-02-10T10:43:05.846Z,2.82
2018-02-10T10:45:33.380Z,2.84
2018-02-10T10:48:00.910Z,2.77
2018-02-10T10:50:28.425Z,2.79
2018-02-10T10:52:55.958Z,2.86
2018-02-10T10:55:23.521Z,2.94
2018-02-10T10:57:51.119Z,3.04
2018-02-10T11:00:18.633Z,3.17
2018-02-10T11:02:46.169Z,3.13
2018-02-10T11:05:13.717Z,3.37
2018-02-10T11:07:41.281Z,3.34
2018-02-10T11:10:08.800Z,3.45
2018-02-10T11:12:36.332Z,3.45
2018-02-10T11:15:03.867Z,3.37
2018-02-10T11:17:31.406Z,3.55
2018-02-10T11:19:58.954Z,3.45
2018-02-10T11:22:26.504Z,3.75
2018-02-10T11:24:54.033Z,3.87
2018-02-10T11:27:21.597Z,3.57
2018-02-10T11:29:49.121Z,3.78
2018-02-10T11:32:16.652Z,3.71
2018-02-10T11:34:44.187Z,4.01
2018-02-10T11:37:11.702Z,4.17
2018-02-10T11:39:39.257Z,4.32
2018-02-10T11:42:06.775Z,4.40
2018-02-10T11:44:34.291Z,4.80
2018-02-10T11:47:01.804Z,4.86
2018-02-10T11:49:29.323Z,4.86
2018-02-10T11:51:56.857Z,5.41
2018-02-10T11:54:24.376Z,6.00
2018-02-10T11:56:52.085Z,6.02
2018-02-10T11:59:19.624Z,6.14
2018-02-10T12:01:47.161Z,6.05
2018-02-10T12:04:14.687Z,6.25
2018-02-10T12:06:42.198Z,6.42
2018-02-10T12:09:09.732Z,6.38
2018-02-10T12:11:37.968Z,6.42
2018-02-10T12:14:05.503Z,6.33
2018-02-10T12:16:33.031Z,6.33
2018-02-10T12:19:00.589Z,6.05
2018-02-10T12:21:28.121Z,6.53
2018-02-10T12:23:55.633Z,6.22
2018-02-10T12:26:23.197Z,6.35
2018-02-10T12:28:50.708Z,5.89
2018-02-10T12:31:18.232Z,5.67
2018-02-10T12:33:45.742Z,5.72
2018-02-10T12:36:13.306Z,5.51
2018-02-10T12:38:40.882Z,5.16
2018-02-10T12:41:08.584Z,5.22
2018-02-10T12:43:36.174Z,5.21
2018-02-10T12:46:03.676Z,5.10
2018-02-10T12:48:36.882Z,5.14
2018-02-10T12:51:04.397Z,5.05
2018-02-10T12:53:31.929Z,4.91
2018-02-10T12:55:59.646Z,4.82
2018-02-10T12:58:27.223Z,4.87
2018-02-10T13:00:54.745Z,4.72
2018-02-10T13:03:22.259Z,4.80
2018-02-10T13:05:49.774Z,4.63
2018-02-10T13:08:17.292Z,4.47
2018-02-10T13:10:44.840Z,4.76
2018-02-10T13:13:12.365Z,4.62
2018-02-10T13:15:39.895Z,4.81
2018-02-10T13:18:07.437Z,4.95
2018-02-10T13:20:34.952Z,5.03
2018-02-10T13:23:02.497Z,5.06
2018-02-10T13:25:30.026Z,5.10
2018-02-10T13:27:57.565Z,4.93
2018-02-10T13:30:25.096Z,4.97
2018-02-10T13:32:52.610Z,4.78
2018-02-10T13:35:20.144Z,4.78
2018-02-10T13:37:47.657Z,4.66
2018-02-10T13:40:15.190Z,4.70
2018-02-10T13:42:42.708Z,4.88
2018-02-10T13:45:10.216Z,4.92
2018-02-10T13:47:37.742Z,4.74
2018-02-10T13:50:05.271Z,4.52
2018-02-10T13:52:32.796Z,4.54
2018-02-10T13:55:00.305Z,4.37
2018-02-10T13:57:27.817Z,4.48
2018-02-10T13:59:55.336Z,4.46
2018-02-10T14:02:22.854Z,4.16
2018-02-10T14:04:50.385Z,4.31
2018-02-10T14:07:17.897Z,4.37
2018-02-10T14:09:45.408Z,4.58
2018-02-10T14:12:12.917Z,4.50
2018-02-10T14:14:40.432Z,4.36
2018-02-10T14:17:07.950Z,4.31
2018-02-10T14:19:35.467Z,4.28
2018-02-10T14:22:02.996Z,4.22
2018-02-10T14:24:30.512Z,4.24
2018-02-10T14:26:58.027Z,4.27
2018-02-10T14:29:25.542Z,4.37
2018-02-10T14:31:53.061Z,4.14
2018-02-10T14:34:20.597Z,4.09
2018-02-10T14:36:48.115Z,4.17
2018-02-10T14:39:15.644Z,4.20
2018-02-10T14:41:43.164Z,4.28
2018-02-10T14:44:10.696Z,4.18
2018-02-10T14:46:38.214Z,4.15
2018-02-10T14:49:05.751Z,4.01
2018-02-10T14:51:33.264Z,4.06
2018-02-10T14:54:00.795Z,3.98
2018-02-10T14:56:28.332Z,4.04
2018-02-10T14:58:55.861Z,4.02
2018-02-10T15:01:23.384Z,3.99
2018-02-10T15:03:50.900Z,3.71
2018-02-10T15:06:18.411Z,3.85
2018-02-10T15:08:45.924Z,3.82
2018-02-10T15:11:13.472Z,3.83
2018-02-10T15:13:40.987Z,3.73
2018-02-10T15:16:08.504Z,3.66
2018-02-10T15:18:36.034Z,3.51
2018-02-10T15:21:03.556Z,3.52
2018-02-10T15:23:31.085Z,3.47
2018-02-10T15:25:58.601Z,3.39
2018-02-10T15:28:26.136Z,3.40
2018-02-10T15:31:05.575Z,3.45
2018-02-10T15:33:45.019Z,3.29
2018-02-10T15:36:12.536Z,3.38
2018-02-10T15:38:40.065Z,3.34
2018-02-10T15:41:07.622Z,3.25
2018-02-10T15:43:35.156Z,3.29
2018-02-10T15:46:02.710Z,3.26
2018-02-10T15:48:30.232Z,3.24
2018-02-10T15:50:57.768Z,3.22
2018-02-10T15:53:25.292Z,3.23
2018-02-10T15:55:52.809Z,3.18
2018-02-10T15:58:20.336Z,3.17
2018-02-10T16:00:48.104Z,3.08
2018-02-10T16:03:15.629Z,3.13
2018-02-10T16:05:43.152Z,3.02
2018-02-10T16:08:10.738Z,3.06
2018-02-10T16:10:38.265Z,3.00
2018-02-10T16:13:05.801Z,2.94
2018-02-10T16:15:33.329Z,2.87
2018-02-10T16:18:00.849Z,2.85
2018-02-10T16:20:28.373Z,2.90
2018-02-10T16:22:55.887Z,2.84
2018-02-10T16:25:23.442Z,2.83
2018-02-10T16:27:50.988Z,2.86
2018-02-10T16:30:18.514Z,2.87
2018-02-10T16:32:46.046Z,2.86
2018-02-10T16:35:13.575Z,2.81
2018-02-10T16:37:41.096Z,2.86
2018-02-10T16:40:08.620Z,2.71
2018-02-10T16:42:36.140Z,2.78
2018-02-10T16:45:03.673Z,2.78
2018-02-10T16:47:31.196Z,2.75
2018-02-10T16:49:58.711Z,2.71
2018-02-10T16:52:26.244Z,2.73
2018-02-10T16:54:53.770Z,2.77
2018-02-10T16:57:21.292Z,2.76
2018-02-10T16:59:48.808Z,2.74
2018-02-10T17:02:16.345Z,2.71
2018-02-10T17:04:43.872Z,2.68
2018-02-10T17:07:11.404Z,2.64
2018-02-10T17:09:38.928Z,2.64
2018-02-10T17:12:06.443Z,2.64
2018-02-10T17:14:33.969Z,2.55
2018-02-10T17:17:01.510Z,2.58
2018-02-10T17:19:29.059Z,2.59
2018-02-10T17:21:56.586Z,2.55
2018-02-10T17:24:24.106Z,2.57
2018-02-10T17:26:51.645Z,2.55
2018-02-10T17:29:19.174Z,2.63
2018-02-10T17:31:46.709Z,2.52
2018-02-10T17:34:14.223Z,2.49
2018-02-10T17:36:41.740Z,2.50
2018-02-10T17:39:09.300Z,2.49
2018-02-10T17:41:36.788Z,2.51
2018-02-10T17:44:04.466Z,2.49
2018-02-10T17:46:31.989Z,2.49
2018-02-10T17:48:59.521Z,2.46
2018-02-10T17:51:27.067Z,2.44
2018-02-10T17:53:54.588Z,2.48
2018-02-10T17:56:22.115Z,2.48
2018-02-10T17:58:49.651Z,2.35
2018-02-10T18:01:17.171Z,2.43
2018-02-10T18:03:44.695Z,2.46
2018-02-10T18:06:12.234Z,2.35
2018-02-10T18:08:39.756Z,2.34
2018-02-10T18:11:07.269Z,2.34
2018-02-10T18:13:34.790Z,2.38
2018-02-10T18:16:02.321Z,2.35
2018-02-10T18:18:29.846Z,2.34
2018-02-10T18:20:57.403Z,2.30
2018-02-10T18:23:25.045Z,2.28
2018-02-10T18:25:52.696Z,2.34
2018-02-10T18:28:20.216Z,2.37
2018-02-10T18:30:47.763Z,2.29
2018-02-10T18:33:15.289Z,2.24
2018-02-10T18:35:42.800Z,2.28
2018-02-10T18:38:10.325Z,2.30
2018-02-10T18:40:37.952Z,2.30
2018-02-10T18:43:05.477Z,2.26
2018-02-10T18:45:32.992Z,2.28
2018-02-10T18:48:00.502Z,2.33
2018-02-10T18:50:28.052Z,2.25
2018-02-10T18:52:55.592Z,2.25
2018-02-10T18:55:23.135Z,2.28
2018-02-10T18:57:50.649Z,2.35
2018-02-10T19:00:18.172Z,2.27
2018-02-10T19:02:45.854Z,2.24
2018-02-10T19:05:13.395Z,2.24
2018-02-10T19:07:40.950Z,2.24
2018-02-10T19:10:08.582Z,2.29
2018-02-10T19:12:36.108Z,2.25
2018-02-10T19:15:03.637Z,2.32
2018-02-10T19:17:31.145Z,2.18
2018-02-10T19:19:58.657Z,2.20
2018-02-10T19:22:26.211Z,2.28
2018-02-10T19:24:54.306Z,2.27
2018-02-10T19:27:21.892Z,2.26
2018-02-10T19:29:49.431Z,2.30
2018-02-10T19:32:16.991Z,2.31
2018-02-10T19:34:44.517Z,2.27
2018-02-10T19:37:12.044Z,2.18
2018-02-10T19:39:39.560Z,2.13
2018-02-10T19:42:07.110Z,2.19
2018-02-10T19:44:34.652Z,2.13
2018-02-10T19:47:02.199Z,2.17
2018-02-10T19:49:29.748Z,2.20
2018-02-10T19:51:57.274Z,2.15
2018-02-10T19:54:24.817Z,2.17
2018-02-10T19:56:52.358Z,2.11
2018-02-10T19:59:19.989Z,2.10
2018-02-10T20:01:47.522Z,2.13
2018-02-10T20:04:15.049Z,2.08
2018-02-10T20:06:42.566Z,2.09
2018-02-10T20:09:10.084Z,2.15
2018-02-10T20:11:37.692Z,2.06
2018-02-10T20:14:05.244Z,2.05
2018-02-10T20:16:32.767Z,2.10
2018-02-10T20:19:00.286Z,2.07
2018-02-10T20:21:27.808Z,2.13
2018-02-10T20:23:55.333Z,2.06
2018-02-10T20:26:22.942Z,2.12
2018-02-10T20:28:50.502Z,2.10
2018-02-10T20:31:18.031Z,2.14
2018-02-10T20:33:45.642Z,2.10
2018-02-10T20:36:13.286Z,2.07
2018-02-10T20:38:40.845Z,2.10
2018-02-10T20:41:08.404Z,2.18
2018-02-10T20:43:35.923Z,2.21
2018-02-10T20:46:03.450Z,2.14
2018-02-10T20:48:30.971Z,2.16
2018-02-10T20:50:58.520Z,2.10
2018-02-10T20:53:26.165Z,2.09
2018-02-10T20:55:53.718Z,2.16
2018-02-10T20:58:21.240Z,2.17
2018-02-10T21:00:48.770Z,2.08
2018-02-10T21:03:16.343Z,2.13
2018-02-10T21:05:43.884Z,2.12
2018-02-10T21:08:11.489Z,2.15
2018-02-10T21:10:39.002Z,2.15
2018-02-10T21:13:06.525Z,2.07
2018-02-10T21:15:34.068Z,2.19
2018-02-10T21:18:01.687Z,2.13
2018-02-10T21:20:29.204Z,2.18
2018-02-10T21:22:56.824Z,2.06
2018-02-10T21:25:24.378Z,2.13
2018-02-10T21:27:51.943Z,2.11
2018-02-10T21:30:19.459Z,2.06
2018-02-10T21:32:47.004Z,2.04
2018-02-10T21:35:14.520Z,2.05
2018-02-10T21:37:42.082Z,2.06
2018-02-10T21:40:09.654Z,2.06
2018-02-10T21:42:37.189Z,2.11
2018-02-10T21:45:04.756Z,2.13
2018-02-10T21:47:32.349Z,2.11
2018-02-10T21:49:59.881Z,2.07
2018-02-10T21:52:27.396Z,2.05
2018-02-10T21:54:54.944Z,2.04
2018-02-10T21:57:22.500Z,1.96
2018-02-10T21:59:50.029Z,2.02
2018-02-10T22:02:17.556Z,1.96
2018-02-10T22:04:45.141Z,1.96
2018-02-10T22:07:12.680Z,2.01
2018-02-10T22:09:40.185Z,2.01
2018-02-10T22:12:07.701Z,2.00
2018-02-10T22:14:35.269Z,2.00
2018-02-10T22:17:02.784Z,1.99
2018-02-10T22:19:30.302Z,2.00
2018-02-10T22:21:57.841Z,1.95
2018-02-10T22:24:25.401Z,2.03
2018-02-10T22:26:52.960Z,2.04
2018-02-10T22:29:20.478Z,2.05
2018-02-10T22:31:48.049Z,2.03
2018-02-10T22:34:15.594Z,2.07
2018-02-10T22:36:43.121Z,1.91
2018-02-10T22:39:10.636Z,1.94
2018-02-10T22:41:38.162Z,2.02
2018-02-10T22:44:05.695Z,2.07
2018-02-10T22:46:33.249Z,2.06
2018-02-10T22:49:00.778Z,2.08
2018-02-10T22:51:28.397Z,2.21
2018-02-10T22:53:56.037Z,2.09
2018-02-10T22:56:23.581Z,2.07
2018-02-10T22:58:51.156Z,2.11
2018-02-10T23:01:18.707Z,2.10
2018-02-10T23:03:46.436Z,1.88
2018-02-10T23:06:13.985Z,2.04
2018-02-10T23:08:41.638Z,2.06
2018-02-10T23:11:09.162Z,2.03
2018-02-10T23:13:36.704Z,2.01
2018-02-10T23:16:04.216Z,1.97
2018-02-10T23:18:31.730Z,2.02
2018-02-10T23:20:59.269Z,1.98
2018-02-10T23:23:26.825Z,1.91
2018-02-10T23:25:54.525Z,2.01
2018-02-10T23:28:22.189Z,2.04
2018-02-10T23:30:49.712Z,2.11
2018-02-10T23:33:17.228Z,2.11
2018-02-10T23:35:44.742Z,2.12
2018-02-10T23:38:12.263Z,2.10
2018-02-10T23:40:39.801Z,2.08
2018-02-10T23:43:07.328Z,2.05
2018-02-10T23:45:34.853Z,1.99
2018-02-10T23:48:02.400Z,2.03
2018-02-10T23:50:29.916Z,2.05
2018-02-10T23:52:57.446Z,2.05
2018-02-10T23:55:25.044Z,2.08
2018-02-10T23:57:52.597Z,2.10
